sensor_id;sensor_type;location;lat;lon;timestamp;P1;durP1;ratioP1;P2;durP2;ratioP2
59786;SDS011;45672;51.612;5.536;2024-03-02T00:02:10;2.40;;;1.60;;
59786;SDS011;45672;51.612;5.536;2024-03-02T00:04:36;2.65;;;1.50;;
59786;SDS011;45672;51.612;5.536;2024-03-02T00:07:02;3.30;;;1.67;;
59786;SDS011;45672;51.612;5.536;2024-03-02T00:09:27;2.67;;;1.63;;
59786;SDS011;45672;51.612;5.536;2024-03-02T00:11:54;1.65;;;1.42;;
59786;SDS011;45672;51.612;5.536;2024-03-02T00:14:19;3.00;;;1.48;;
59786;SDS011;45672;51.612;5.536;2024-03-02T00:16:45;1.63;;;1.40;;
59786;SDS011;45672;51.612;5.536;2024-03-02T00:19:10;2.72;;;1.60;;
59786;SDS011;45672;51.612;5.536;2024-03-02T00:21:36;2.55;;;1.52;;
59786;SDS011;45672;51.612;5.536;2024-03-02T00:24:04;4.25;;;1.50;;
59786;SDS011;45672;51.612;5.536;2024-03-02T00:26:44;1.00;;;0.90;;
59786;SDS011;45672;51.612;5.536;2024-03-02T00:29:10;1.08;;;0.73;;
59786;SDS011;45672;51.612;5.536;2024-03-02T00:31:41;0.60;;;0.60;;
59786;SDS011;45672;51.612;5.536;2024-03-02T00:34:06;0.70;;;0.70;;
59786;SDS011;45672;51.612;5.536;2024-03-02T00:36:32;0.70;;;0.70;;
59786;SDS011;45672;51.612;5.536;2024-03-02T00:38:58;0.65;;;0.65;;
59786;SDS011;45672;51.612;5.536;2024-03-02T00:41:24;0.70;;;0.70;;
59786;SDS011;45672;51.612;5.536;2024-03-02T00:46:27;1.00;;;0.90;;
59786;SDS011;45672;51.612;5.536;2024-03-02T00:48:56;4.97;;;0.70;;
59786;SDS011;45672;51.612;5.536;2024-03-02T00:51:24;0.57;;;0.57;;
59786;SDS011;45672;51.612;5.536;2024-03-02T00:53:51;0.75;;;0.70;;
59786;SDS011;45672;51.612;5.536;2024-03-02T00:56:17;0.68;;;0.60;;
59786;SDS011;45672;51.612;5.536;2024-03-02T00:58:43;1.75;;;0.60;;
59786;SDS011;45672;51.612;5.536;2024-03-02T01:01:09;0.70;;;0.70;;
59786;SDS011;45672;51.612;5.536;2024-03-02T01:03:34;0.55;;;0.55;;
59786;SDS011;45672;51.612;5.536;2024-03-02T01:06:02;0.50;;;0.50;;
59786;SDS011;45672;51.612;5.536;2024-03-02T01:08:27;0.70;;;0.70;;
59786;SDS011;45672;51.612;5.536;2024-03-02T01:10:53;0.60;;;0.60;;
59786;SDS011;45672;51.612;5.536;2024-03-02T01:13:19;0.82;;;0.70;;
59786;SDS011;45672;51.612;5.536;2024-03-02T01:15:45;0.70;;;0.70;;
59786;SDS011;45672;51.612;5.536;2024-03-02T01:18:10;0.60;;;0.60;;
59786;SDS011;45672;51.612;5.536;2024-03-02T01:20:36;0.80;;;0.80;;
59786;SDS011;45672;51.612;5.536;2024-03-02T01:23:01;0.80;;;0.80;;
59786;SDS011;45672;51.612;5.536;2024-03-02T01:25:26;3.92;;;0.60;;
59786;SDS011;45672;51.612;5.536;2024-03-02T01:27:51;0.77;;;0.77;;
59786;SDS011;45672;51.612;5.536;2024-03-02T01:30:17;0.63;;;0.63;;
59786;SDS011;45672;51.612;5.536;2024-03-02T01:32:42;0.60;;;0.60;;
59786;SDS011;45672;51.612;5.536;2024-03-02T01:35:08;0.60;;;0.60;;
59786;SDS011;45672;51.612;5.536;2024-03-02T01:37:33;0.65;;;0.65;;
59786;SDS011;45672;51.612;5.536;2024-03-02T01:39:59;1.52;;;0.73;;
59786;SDS011;45672;51.612;5.536;2024-03-02T01:42:25;0.80;;;0.70;;
59786;SDS011;45672;51.612;5.536;2024-03-02T01:44:50;0.60;;;0.60;;
59786;SDS011;45672;51.612;5.536;2024-03-02T01:47:16;0.60;;;0.60;;
59786;SDS011;45672;51.612;5.536;2024-03-02T01:49:41;0.68;;;0.60;;
59786;SDS011;45672;51.612;5.536;2024-03-02T01:52:07;0.60;;;0.60;;
59786;SDS011;45672;51.612;5.536;2024-03-02T01:54:32;0.70;;;0.70;;
59786;SDS011;45672;51.612;5.536;2024-03-02T01:56:58;1.27;;;0.70;;
59786;SDS011;45672;51.612;5.536;2024-03-02T01:59:24;1.08;;;0.55;;
59786;SDS011;45672;51.612;5.536;2024-03-02T02:01:50;0.50;;;0.50;;
59786;SDS011;45672;51.612;5.536;2024-03-02T02:04:15;0.60;;;0.60;;
59786;SDS011;45672;51.612;5.536;2024-03-02T02:06:40;0.70;;;0.60;;
59786;SDS011;45672;51.612;5.536;2024-03-02T02:09:06;0.70;;;0.70;;
59786;SDS011;45672;51.612;5.536;2024-03-02T02:11:33;0.70;;;0.60;;
59786;SDS011;45672;51.612;5.536;2024-03-02T02:13:59;0.60;;;0.60;;
59786;SDS011;45672;51.612;5.536;2024-03-02T02:16:24;0.70;;;0.70;;
59786;SDS011;45672;51.612;5.536;2024-03-02T02:18:49;2.08;;;0.98;;
59786;SDS011;45672;51.612;5.536;2024-03-02T02:21:15;0.70;;;0.60;;
59786;SDS011;45672;51.612;5.536;2024-03-02T02:23:40;0.70;;;0.70;;
59786;SDS011;45672;51.612;5.536;2024-03-02T02:26:11;0.70;;;0.70;;
59786;SDS011;45672;51.612;5.536;2024-03-02T02:28:36;1.40;;;0.60;;
59786;SDS011;45672;51.612;5.536;2024-03-02T02:31:01;0.65;;;0.65;;
59786;SDS011;45672;51.612;5.536;2024-03-02T02:33:27;1.70;;;0.60;;
59786;SDS011;45672;51.612;5.536;2024-03-02T02:35:53;0.70;;;0.70;;
59786;SDS011;45672;51.612;5.536;2024-03-02T02:38:18;1.02;;;0.70;;
59786;SDS011;45672;51.612;5.536;2024-03-02T02:40:45;1.95;;;0.75;;
59786;SDS011;45672;51.612;5.536;2024-03-02T02:43:10;0.80;;;0.80;;
59786;SDS011;45672;51.612;5.536;2024-03-02T02:45:36;1.25;;;0.60;;
59786;SDS011;45672;51.612;5.536;2024-03-02T02:48:01;0.52;;;0.50;;
59786;SDS011;45672;51.612;5.536;2024-03-02T02:50:27;0.70;;;0.70;;
59786;SDS011;45672;51.612;5.536;2024-03-02T02:52:53;0.75;;;0.75;;
59786;SDS011;45672;51.612;5.536;2024-03-02T02:55:18;0.60;;;0.60;;
59786;SDS011;45672;51.612;5.536;2024-03-02T02:57:44;0.70;;;0.70;;
59786;SDS011;45672;51.612;5.536;2024-03-02T03:00:13;0.85;;;0.85;;
59786;SDS011;45672;51.612;5.536;2024-03-02T03:02:40;0.98;;;0.70;;
59786;SDS011;45672;51.612;5.536;2024-03-02T03:05:07;0.57;;;0.57;;
59786;SDS011;45672;51.612;5.536;2024-03-02T03:07:33;0.80;;;0.80;;
59786;SDS011;45672;51.612;5.536;2024-03-02T03:09:59;0.73;;;0.70;;
59786;SDS011;45672;51.612;5.536;2024-03-02T03:12:25;0.60;;;0.60;;
59786;SDS011;45672;51.612;5.536;2024-03-02T03:14:50;0.57;;;0.55;;
59786;SDS011;45672;51.612;5.536;2024-03-02T03:17:16;1.48;;;0.70;;
59786;SDS011;45672;51.612;5.536;2024-03-02T03:19:42;0.95;;;0.80;;
59786;SDS011;45672;51.612;5.536;2024-03-02T03:22:07;2.35;;;1.00;;
59786;SDS011;45672;51.612;5.536;2024-03-02T03:24:33;2.47;;;0.80;;
59786;SDS011;45672;51.612;5.536;2024-03-02T03:26:58;0.95;;;0.80;;
59786;SDS011;45672;51.612;5.536;2024-03-02T03:29:23;0.70;;;0.70;;
59786;SDS011;45672;51.612;5.536;2024-03-02T03:31:49;0.95;;;0.50;;
59786;SDS011;45672;51.612;5.536;2024-03-02T03:34:14;0.68;;;0.63;;
59786;SDS011;45672;51.612;5.536;2024-03-02T03:36:41;0.80;;;0.60;;
59786;SDS011;45672;51.612;5.536;2024-03-02T03:39:06;0.50;;;0.50;;
59786;SDS011;45672;51.612;5.536;2024-03-02T03:41:31;0.55;;;0.55;;
59786;SDS011;45672;51.612;5.536;2024-03-02T03:43:57;1.52;;;0.68;;
59786;SDS011;45672;51.612;5.536;2024-03-02T03:46:22;0.95;;;0.73;;
59786;SDS011;45672;51.612;5.536;2024-03-02T03:48:47;0.60;;;0.60;;
59786;SDS011;45672;51.612;5.536;2024-03-02T03:51:13;2.92;;;0.80;;
59786;SDS011;45672;51.612;5.536;2024-03-02T03:53:38;1.60;;;0.60;;
59786;SDS011;45672;51.612;5.536;2024-03-02T03:56:04;1.45;;;0.50;;
59786;SDS011;45672;51.612;5.536;2024-03-02T03:58:30;1.00;;;0.70;;
59786;SDS011;45672;51.612;5.536;2024-03-02T04:00:55;0.52;;;0.52;;
59786;SDS011;45672;51.612;5.536;2024-03-02T04:03:21;0.88;;;0.45;;
59786;SDS011;45672;51.612;5.536;2024-03-02T04:05:46;0.73;;;0.70;;
59786;SDS011;45672;51.612;5.536;2024-03-02T04:08:11;1.17;;;0.60;;
59786;SDS011;45672;51.612;5.536;2024-03-02T04:10:36;0.50;;;0.50;;
59786;SDS011;45672;51.612;5.536;2024-03-02T04:13:02;1.00;;;0.68;;
59786;SDS011;45672;51.612;5.536;2024-03-02T04:15:27;2.50;;;0.60;;
59786;SDS011;45672;51.612;5.536;2024-03-02T04:17:52;0.95;;;0.60;;
59786;SDS011;45672;51.612;5.536;2024-03-02T04:20:18;0.80;;;0.80;;
59786;SDS011;45672;51.612;5.536;2024-03-02T04:22:43;1.17;;;0.70;;
59786;SDS011;45672;51.612;5.536;2024-03-02T04:25:08;0.60;;;0.60;;
59786;SDS011;45672;51.612;5.536;2024-03-02T04:27:34;0.70;;;0.70;;
59786;SDS011;45672;51.612;5.536;2024-03-02T04:30:00;0.65;;;0.60;;
59786;SDS011;45672;51.612;5.536;2024-03-02T04:32:26;0.75;;;0.70;;
59786;SDS011;45672;51.612;5.536;2024-03-02T04:34:52;0.80;;;0.70;;
59786;SDS011;45672;51.612;5.536;2024-03-02T04:37:17;1.02;;;0.65;;
59786;SDS011;45672;51.612;5.536;2024-03-02T04:39:42;1.73;;;0.70;;
59786;SDS011;45672;51.612;5.536;2024-03-02T04:42:08;0.75;;;0.73;;
59786;SDS011;45672;51.612;5.536;2024-03-02T04:44:33;0.88;;;0.88;;
59786;SDS011;45672;51.612;5.536;2024-03-02T04:46:58;1.08;;;0.80;;
59786;SDS011;45672;51.612;5.536;2024-03-02T04:49:24;1.00;;;0.70;;
59786;SDS011;45672;51.612;5.536;2024-03-02T04:51:49;1.27;;;0.70;;
59786;SDS011;45672;51.612;5.536;2024-03-02T04:54:14;0.65;;;0.65;;
59786;SDS011;45672;51.612;5.536;2024-03-02T04:56:40;0.77;;;0.77;;
59786;SDS011;45672;51.612;5.536;2024-03-02T04:59:09;1.02;;;0.70;;
59786;SDS011;45672;51.612;5.536;2024-03-02T05:01:35;0.73;;;0.70;;
59786;SDS011;45672;51.612;5.536;2024-03-02T05:04:00;0.95;;;0.82;;
59786;SDS011;45672;51.612;5.536;2024-03-02T05:06:26;0.90;;;0.80;;
59786;SDS011;45672;51.612;5.536;2024-03-02T05:08:51;0.90;;;0.80;;
59786;SDS011;45672;51.612;5.536;2024-03-02T05:11:16;0.70;;;0.70;;
59786;SDS011;45672;51.612;5.536;2024-03-02T05:14:02;1.13;;;0.70;;
59786;SDS011;45672;51.612;5.536;2024-03-02T05:16:28;1.88;;;0.82;;
59786;SDS011;45672;51.612;5.536;2024-03-02T05:18:53;0.90;;;0.90;;
59786;SDS011;45672;51.612;5.536;2024-03-02T05:21:19;0.70;;;0.70;;
59786;SDS011;45672;51.612;5.536;2024-03-02T05:23:44;0.75;;;0.75;;
59786;SDS011;45672;51.612;5.536;2024-03-02T05:26:09;0.60;;;0.60;;
59786;SDS011;45672;51.612;5.536;2024-03-02T05:28:37;0.70;;;0.70;;
59786;SDS011;45672;51.612;5.536;2024-03-02T05:31:03;2.22;;;0.82;;
59786;SDS011;45672;51.612;5.536;2024-03-02T05:33:28;1.55;;;0.80;;
59786;SDS011;45672;51.612;5.536;2024-03-02T05:35:56;0.60;;;0.60;;
59786;SDS011;45672;51.612;5.536;2024-03-02T05:38:21;1.08;;;0.70;;
59786;SDS011;45672;51.612;5.536;2024-03-02T05:40:47;1.17;;;0.70;;
59786;SDS011;45672;51.612;5.536;2024-03-02T05:43:12;2.47;;;0.82;;
59786;SDS011;45672;51.612;5.536;2024-03-02T05:45:37;1.77;;;0.88;;
59786;SDS011;45672;51.612;5.536;2024-03-02T05:48:02;2.30;;;0.77;;
59786;SDS011;45672;51.612;5.536;2024-03-02T05:50:28;1.00;;;0.77;;
59786;SDS011;45672;51.612;5.536;2024-03-02T05:52:53;0.75;;;0.75;;
59786;SDS011;45672;51.612;5.536;2024-03-02T05:55:21;0.95;;;0.80;;
59786;SDS011;45672;51.612;5.536;2024-03-02T05:57:47;2.20;;;0.90;;
59786;SDS011;45672;51.612;5.536;2024-03-02T06:00:24;0.85;;;0.70;;
59786;SDS011;45672;51.612;5.536;2024-03-02T06:02:49;0.80;;;0.77;;
59786;SDS011;45672;51.612;5.536;2024-03-02T06:05:15;4.10;;;0.88;;
59786;SDS011;45672;51.612;5.536;2024-03-02T06:07:41;1.58;;;1.48;;
59786;SDS011;45672;51.612;5.536;2024-03-02T06:10:08;0.73;;;0.73;;
59786;SDS011;45672;51.612;5.536;2024-03-02T06:12:33;0.60;;;0.60;;
59786;SDS011;45672;51.612;5.536;2024-03-02T06:14:59;1.00;;;0.88;;
59786;SDS011;45672;51.612;5.536;2024-03-02T06:17:24;1.27;;;0.70;;
59786;SDS011;45672;51.612;5.536;2024-03-02T06:19:50;0.70;;;0.70;;
59786;SDS011;45672;51.612;5.536;2024-03-02T06:22:15;0.95;;;0.85;;
59786;SDS011;45672;51.612;5.536;2024-03-02T06:24:40;0.65;;;0.65;;
59786;SDS011;45672;51.612;5.536;2024-03-02T06:27:06;0.63;;;0.63;;
59786;SDS011;45672;51.612;5.536;2024-03-02T06:29:34;1.85;;;0.80;;
59786;SDS011;45672;51.612;5.536;2024-03-02T06:31:59;1.95;;;0.70;;
59786;SDS011;45672;51.612;5.536;2024-03-02T06:34:25;1.27;;;0.85;;
59786;SDS011;45672;51.612;5.536;2024-03-02T06:36:50;1.10;;;0.80;;
59786;SDS011;45672;51.612;5.536;2024-03-02T06:39:15;2.38;;;0.93;;
59786;SDS011;45672;51.612;5.536;2024-03-02T06:41:41;2.95;;;0.95;;
59786;SDS011;45672;51.612;5.536;2024-03-02T06:44:07;2.63;;;0.80;;
59786;SDS011;45672;51.612;5.536;2024-03-02T06:46:32;0.70;;;0.70;;
59786;SDS011;45672;51.612;5.536;2024-03-02T06:48:58;0.82;;;0.82;;
59786;SDS011;45672;51.612;5.536;2024-03-02T06:51:23;3.95;;;1.00;;
59786;SDS011;45672;51.612;5.536;2024-03-02T06:53:48;3.17;;;1.17;;
59786;SDS011;45672;51.612;5.536;2024-03-02T06:56:14;3.88;;;1.05;;
59786;SDS011;45672;51.612;5.536;2024-03-02T06:58:39;4.97;;;0.90;;
59786;SDS011;45672;51.612;5.536;2024-03-02T07:01:04;3.25;;;1.60;;
59786;SDS011;45672;51.612;5.536;2024-03-02T07:03:30;0.82;;;0.60;;
59786;SDS011;45672;51.612;5.536;2024-03-02T07:05:55;0.70;;;0.70;;
59786;SDS011;45672;51.612;5.536;2024-03-02T07:08:20;0.73;;;0.65;;
59786;SDS011;45672;51.612;5.536;2024-03-02T07:10:46;0.75;;;0.70;;
59786;SDS011;45672;51.612;5.536;2024-03-02T07:13:12;1.02;;;0.82;;
59786;SDS011;45672;51.612;5.536;2024-03-02T07:15:38;1.58;;;0.82;;
59786;SDS011;45672;51.612;5.536;2024-03-02T07:18:32;3.58;;;0.80;;
59786;SDS011;45672;51.612;5.536;2024-03-02T07:21:09;1.90;;;0.85;;
59786;SDS011;45672;51.612;5.536;2024-03-02T07:23:34;3.22;;;1.10;;
59786;SDS011;45672;51.612;5.536;2024-03-02T07:26:00;0.73;;;0.73;;
59786;SDS011;45672;51.612;5.536;2024-03-02T07:28:26;1.52;;;0.70;;
59786;SDS011;45672;51.612;5.536;2024-03-02T07:30:59;1.20;;;0.90;;
59786;SDS011;45672;51.612;5.536;2024-03-02T07:33:24;2.72;;;1.00;;
59786;SDS011;45672;51.612;5.536;2024-03-02T07:35:50;1.75;;;0.88;;
59786;SDS011;45672;51.612;5.536;2024-03-02T07:38:15;0.75;;;0.73;;
59786;SDS011;45672;51.612;5.536;2024-03-02T07:40:40;4.22;;;1.00;;
59786;SDS011;45672;51.612;5.536;2024-03-02T07:43:07;5.82;;;1.08;;
59786;SDS011;45672;51.612;5.536;2024-03-02T07:45:32;1.38;;;0.90;;
59786;SDS011;45672;51.612;5.536;2024-03-02T07:47:57;0.73;;;0.55;;
59786;SDS011;45672;51.612;5.536;2024-03-02T07:50:23;3.25;;;1.25;;
59786;SDS011;45672;51.612;5.536;2024-03-02T07:52:48;0.90;;;0.80;;
59786;SDS011;45672;51.612;5.536;2024-03-02T07:55:13;1.75;;;0.90;;
59786;SDS011;45672;51.612;5.536;2024-03-02T07:57:39;4.72;;;1.00;;
59786;SDS011;45672;51.612;5.536;2024-03-02T08:00:05;1.33;;;1.10;;
59786;SDS011;45672;51.612;5.536;2024-03-02T08:02:31;3.72;;;1.10;;
59786;SDS011;45672;51.612;5.536;2024-03-02T08:04:56;5.35;;;1.58;;
59786;SDS011;45672;51.612;5.536;2024-03-02T08:07:22;1.05;;;0.90;;
59786;SDS011;45672;51.612;5.536;2024-03-02T08:09:47;3.28;;;0.85;;
59786;SDS011;45672;51.612;5.536;2024-03-02T08:12:12;1.45;;;0.80;;
59786;SDS011;45672;51.612;5.536;2024-03-02T08:14:38;3.17;;;0.90;;
59786;SDS011;45672;51.612;5.536;2024-03-02T08:17:03;2.67;;;0.90;;
59786;SDS011;45672;51.612;5.536;2024-03-02T08:19:34;3.30;;;1.10;;
59786;SDS011;45672;51.612;5.536;2024-03-02T08:22:00;3.50;;;0.82;;
59786;SDS011;45672;51.612;5.536;2024-03-02T08:24:25;2.45;;;1.08;;
59786;SDS011;45672;51.612;5.536;2024-03-02T08:26:50;1.58;;;1.10;;
59786;SDS011;45672;51.612;5.536;2024-03-02T08:29:16;3.35;;;1.17;;
59786;SDS011;45672;51.612;5.536;2024-03-02T08:31:41;3.05;;;1.10;;
59786;SDS011;45672;51.612;5.536;2024-03-02T08:34:06;1.92;;;0.90;;
59786;SDS011;45672;51.612;5.536;2024-03-02T08:36:32;3.95;;;1.10;;
59786;SDS011;45672;51.612;5.536;2024-03-02T08:38:57;4.00;;;0.95;;
59786;SDS011;45672;51.612;5.536;2024-03-02T08:41:22;2.08;;;0.90;;
59786;SDS011;45672;51.612;5.536;2024-03-02T08:43:48;1.65;;;0.93;;
59786;SDS011;45672;51.612;5.536;2024-03-02T08:46:13;2.22;;;1.10;;
59786;SDS011;45672;51.612;5.536;2024-03-02T08:48:39;3.88;;;0.95;;
59786;SDS011;45672;51.612;5.536;2024-03-02T08:51:04;1.08;;;0.80;;
59786;SDS011;45672;51.612;5.536;2024-03-02T08:53:32;3.03;;;1.10;;
59786;SDS011;45672;51.612;5.536;2024-03-02T08:55:58;1.48;;;0.80;;
59786;SDS011;45672;51.612;5.536;2024-03-02T08:58:23;2.97;;;0.80;;
59786;SDS011;45672;51.612;5.536;2024-03-02T09:00:49;3.42;;;0.80;;
59786;SDS011;45672;51.612;5.536;2024-03-02T09:03:14;3.00;;;0.85;;
59786;SDS011;45672;51.612;5.536;2024-03-02T09:05:40;1.10;;;0.63;;
59786;SDS011;45672;51.612;5.536;2024-03-02T09:08:05;4.00;;;0.88;;
59786;SDS011;45672;51.612;5.536;2024-03-02T09:10:31;1.25;;;0.80;;
59786;SDS011;45672;51.612;5.536;2024-03-02T09:12:56;1.33;;;0.70;;
59786;SDS011;45672;51.612;5.536;2024-03-02T09:15:21;1.95;;;0.70;;
59786;SDS011;45672;51.612;5.536;2024-03-02T09:17:47;1.15;;;0.70;;
59786;SDS011;45672;51.612;5.536;2024-03-02T09:20:12;2.25;;;1.10;;
59786;SDS011;45672;51.612;5.536;2024-03-02T09:22:39;1.25;;;0.70;;
59786;SDS011;45672;51.612;5.536;2024-03-02T09:25:04;2.33;;;0.90;;
59786;SDS011;45672;51.612;5.536;2024-03-02T09:27:29;1.98;;;0.73;;
59786;SDS011;45672;51.612;5.536;2024-03-02T09:29:54;1.90;;;0.80;;
59786;SDS011;45672;51.612;5.536;2024-03-02T09:32:20;3.63;;;0.77;;
59786;SDS011;45672;51.612;5.536;2024-03-02T09:34:45;3.25;;;0.80;;
59786;SDS011;45672;51.612;5.536;2024-03-02T09:37:13;2.20;;;0.80;;
59786;SDS011;45672;51.612;5.536;2024-03-02T09:39:38;1.42;;;0.70;;
59786;SDS011;45672;51.612;5.536;2024-03-02T09:42:04;2.25;;;0.98;;
59786;SDS011;45672;51.612;5.536;2024-03-02T09:44:31;1.52;;;0.80;;
59786;SDS011;45672;51.612;5.536;2024-03-02T09:46:56;2.22;;;0.70;;
59786;SDS011;45672;51.612;5.536;2024-03-02T09:49:22;0.98;;;0.70;;
59786;SDS011;45672;51.612;5.536;2024-03-02T09:51:48;2.10;;;0.80;;
59786;SDS011;45672;51.612;5.536;2024-03-02T09:54:14;2.53;;;0.73;;
59786;SDS011;45672;51.612;5.536;2024-03-02T09:56:40;1.98;;;0.80;;
59786;SDS011;45672;51.612;5.536;2024-03-02T09:59:05;2.35;;;0.90;;
59786;SDS011;45672;51.612;5.536;2024-03-02T10:01:31;2.10;;;0.75;;
59786;SDS011;45672;51.612;5.536;2024-03-02T10:03:59;3.28;;;1.08;;
59786;SDS011;45672;51.612;5.536;2024-03-02T10:06:25;1.95;;;0.75;;
59786;SDS011;45672;51.612;5.536;2024-03-02T10:08:52;3.60;;;0.70;;
59786;SDS011;45672;51.612;5.536;2024-03-02T10:11:34;3.17;;;0.90;;
59786;SDS011;45672;51.612;5.536;2024-03-02T10:14:08;2.67;;;0.80;;
59786;SDS011;45672;51.612;5.536;2024-03-02T10:16:39;2.13;;;0.70;;
59786;SDS011;45672;51.612;5.536;2024-03-02T10:21:43;3.95;;;0.80;;
59786;SDS011;45672;51.612;5.536;2024-03-02T10:24:16;1.90;;;0.77;;
59786;SDS011;45672;51.612;5.536;2024-03-02T10:26:45;1.60;;;0.77;;
59786;SDS011;45672;51.612;5.536;2024-03-02T10:29:11;1.25;;;0.77;;
59786;SDS011;45672;51.612;5.536;2024-03-02T10:31:37;5.05;;;1.00;;
59786;SDS011;45672;51.612;5.536;2024-03-02T10:34:04;3.45;;;0.80;;
59786;SDS011;45672;51.612;5.536;2024-03-02T10:36:31;2.45;;;0.90;;
59786;SDS011;45672;51.612;5.536;2024-03-02T10:38:57;1.98;;;0.90;;
59786;SDS011;45672;51.612;5.536;2024-03-02T10:41:24;1.98;;;0.95;;
59786;SDS011;45672;51.612;5.536;2024-03-02T10:43:54;2.65;;;0.95;;
59786;SDS011;45672;51.612;5.536;2024-03-02T10:46:27;6.25;;;1.00;;
59786;SDS011;45672;51.612;5.536;2024-03-02T10:48:57;2.08;;;0.90;;
59786;SDS011;45672;51.612;5.536;2024-03-02T10:51:27;2.05;;;1.05;;
59786;SDS011;45672;51.612;5.536;2024-03-02T10:53:53;3.55;;;0.77;;
59786;SDS011;45672;51.612;5.536;2024-03-02T10:56:27;3.05;;;0.90;;
59786;SDS011;45672;51.612;5.536;2024-03-02T10:59:16;1.98;;;0.90;;
59786;SDS011;45672;51.612;5.536;2024-03-02T11:01:43;2.80;;;1.05;;
59786;SDS011;45672;51.612;5.536;2024-03-02T11:04:12;2.17;;;1.02;;
59786;SDS011;45672;51.612;5.536;2024-03-02T11:06:40;3.72;;;0.85;;
59786;SDS011;45672;51.612;5.536;2024-03-02T11:09:12;3.70;;;0.90;;
59786;SDS011;45672;51.612;5.536;2024-03-02T11:11:42;2.72;;;0.93;;
59786;SDS011;45672;51.612;5.536;2024-03-02T11:14:13;3.38;;;0.90;;
59786;SDS011;45672;51.612;5.536;2024-03-02T11:16:41;3.50;;;1.10;;
59786;SDS011;45672;51.612;5.536;2024-03-02T11:19:10;1.60;;;0.70;;
59786;SDS011;45672;51.612;5.536;2024-03-02T11:21:36;1.50;;;1.00;;
59786;SDS011;45672;51.612;5.536;2024-03-02T11:26:46;4.45;;;1.00;;
59786;SDS011;45672;51.612;5.536;2024-03-02T11:29:57;3.65;;;0.90;;
59786;SDS011;45672;51.612;5.536;2024-03-02T11:32:01;1.83;;;0.90;;
59786;SDS011;45672;51.612;5.536;2024-03-02T11:34:30;3.83;;;0.85;;
59786;SDS011;45672;51.612;5.536;2024-03-02T11:36:57;1.63;;;0.90;;
59786;SDS011;45672;51.612;5.536;2024-03-02T11:39:24;2.88;;;0.90;;
59786;SDS011;45672;51.612;5.536;2024-03-02T11:41:52;3.22;;;0.90;;
59786;SDS011;45672;51.612;5.536;2024-03-02T11:44:18;5.28;;;1.00;;
59786;SDS011;45672;51.612;5.536;2024-03-02T11:47:00;2.28;;;0.82;;
59786;SDS011;45672;51.612;5.536;2024-03-02T11:49:38;4.07;;;1.65;;
59786;SDS011;45672;51.612;5.536;2024-03-02T11:52:06;2.05;;;1.00;;
59786;SDS011;45672;51.612;5.536;2024-03-02T11:54:32;3.53;;;0.90;;
59786;SDS011;45672;51.612;5.536;2024-03-02T11:57:02;3.45;;;0.88;;
59786;SDS011;45672;51.612;5.536;2024-03-02T11:59:28;3.55;;;1.13;;
59786;SDS011;45672;51.612;5.536;2024-03-02T12:01:55;2.03;;;1.00;;
59786;SDS011;45672;51.612;5.536;2024-03-02T12:04:21;2.03;;;0.85;;
59786;SDS011;45672;51.612;5.536;2024-03-02T12:06:47;3.03;;;1.10;;
59786;SDS011;45672;51.612;5.536;2024-03-02T12:09:19;5.15;;;1.50;;
59786;SDS011;45672;51.612;5.536;2024-03-02T12:11:45;2.67;;;1.00;;
59786;SDS011;45672;51.612;5.536;2024-03-02T12:14:11;2.35;;;1.05;;
59786;SDS011;45672;51.612;5.536;2024-03-02T12:16:43;1.15;;;0.80;;
59786;SDS011;45672;51.612;5.536;2024-03-02T12:19:09;2.28;;;0.98;;
59786;SDS011;45672;51.612;5.536;2024-03-02T12:21:34;1.10;;;0.65;;
59786;SDS011;45672;51.612;5.536;2024-03-02T12:24:00;2.97;;;0.90;;
59786;SDS011;45672;51.612;5.536;2024-03-02T12:26:26;1.95;;;0.95;;
59786;SDS011;45672;51.612;5.536;2024-03-02T12:28:53;3.20;;;1.42;;
59786;SDS011;45672;51.612;5.536;2024-03-02T12:31:19;4.55;;;1.42;;
59786;SDS011;45672;51.612;5.536;2024-03-02T12:33:45;1.52;;;1.30;;
59786;SDS011;45672;51.612;5.536;2024-03-02T12:36:12;1.48;;;1.10;;
59786;SDS011;45672;51.612;5.536;2024-03-02T12:38:42;2.58;;;1.27;;
59786;SDS011;45672;51.612;5.536;2024-03-02T12:41:08;3.03;;;1.85;;
59786;SDS011;45672;51.612;5.536;2024-03-02T12:43:33;3.47;;;1.30;;
59786;SDS011;45672;51.612;5.536;2024-03-02T12:45:59;6.53;;;1.67;;
59786;SDS011;45672;51.612;5.536;2024-03-02T12:48:24;2.35;;;1.17;;
59786;SDS011;45672;51.612;5.536;2024-03-02T12:50:50;3.85;;;1.30;;
59786;SDS011;45672;51.612;5.536;2024-03-02T12:53:15;2.85;;;1.20;;
59786;SDS011;45672;51.612;5.536;2024-03-02T12:55:41;3.85;;;1.02;;
59786;SDS011;45672;51.612;5.536;2024-03-02T12:58:07;2.08;;;1.13;;
59786;SDS011;45672;51.612;5.536;2024-03-02T13:00:32;3.08;;;1.40;;
59786;SDS011;45672;51.612;5.536;2024-03-02T13:03:00;6.78;;;1.45;;
59786;SDS011;45672;51.612;5.536;2024-03-02T13:05:31;4.82;;;1.15;;
59786;SDS011;45672;51.612;5.536;2024-03-02T13:07:58;3.60;;;1.33;;
59786;SDS011;45672;51.612;5.536;2024-03-02T13:10:24;3.38;;;1.30;;
59786;SDS011;45672;51.612;5.536;2024-03-02T13:12:50;4.47;;;1.40;;
59786;SDS011;45672;51.612;5.536;2024-03-02T13:15:15;3.90;;;1.27;;
59786;SDS011;45672;51.612;5.536;2024-03-02T13:17:41;3.92;;;1.05;;
59786;SDS011;45672;51.612;5.536;2024-03-02T13:20:06;3.55;;;1.20;;
59786;SDS011;45672;51.612;5.536;2024-03-02T13:22:35;4.40;;;1.73;;
59786;SDS011;45672;51.612;5.536;2024-03-02T13:25:00;3.72;;;1.20;;
59786;SDS011;45672;51.612;5.536;2024-03-02T13:27:28;2.50;;;1.05;;
59786;SDS011;45672;51.612;5.536;2024-03-02T13:29:54;3.40;;;1.35;;
59786;SDS011;45672;51.612;5.536;2024-03-02T13:32:19;2.60;;;1.15;;
59786;SDS011;45672;51.612;5.536;2024-03-02T13:34:48;4.15;;;1.17;;
59786;SDS011;45672;51.612;5.536;2024-03-02T13:37:14;4.07;;;1.10;;
59786;SDS011;45672;51.612;5.536;2024-03-02T13:39:39;2.88;;;1.50;;
59786;SDS011;45672;51.612;5.536;2024-03-02T13:42:08;5.32;;;1.00;;
59786;SDS011;45672;51.612;5.536;2024-03-02T13:44:34;2.45;;;1.20;;
59786;SDS011;45672;51.612;5.536;2024-03-02T13:47:00;2.13;;;1.10;;
59786;SDS011;45672;51.612;5.536;2024-03-02T13:49:29;3.30;;;1.30;;
59786;SDS011;45672;51.612;5.536;2024-03-02T13:54:39;2.15;;;1.20;;
59786;SDS011;45672;51.612;5.536;2024-03-02T13:57:13;5.22;;;1.00;;
59786;SDS011;45672;51.612;5.536;2024-03-02T13:59:39;1.52;;;0.98;;
59786;SDS011;45672;51.612;5.536;2024-03-02T14:02:06;1.35;;;0.80;;
59786;SDS011;45672;51.612;5.536;2024-03-02T14:04:33;2.55;;;1.20;;
59786;SDS011;45672;51.612;5.536;2024-03-02T14:06:59;2.35;;;0.90;;
59786;SDS011;45672;51.612;5.536;2024-03-02T14:09:25;2.63;;;1.15;;
59786;SDS011;45672;51.612;5.536;2024-03-02T14:11:51;2.25;;;1.10;;
59786;SDS011;45672;51.612;5.536;2024-03-02T14:14:16;3.22;;;1.20;;
59786;SDS011;45672;51.612;5.536;2024-03-02T14:16:42;1.77;;;1.00;;
59786;SDS011;45672;51.612;5.536;2024-03-02T14:19:08;1.88;;;0.90;;
59786;SDS011;45672;51.612;5.536;2024-03-02T14:21:34;2.00;;;0.90;;
59786;SDS011;45672;51.612;5.536;2024-03-02T14:24:01;2.95;;;1.17;;
59786;SDS011;45672;51.612;5.536;2024-03-02T14:26:26;1.90;;;1.10;;
59786;SDS011;45672;51.612;5.536;2024-03-02T14:28:53;3.03;;;1.33;;
59786;SDS011;45672;51.612;5.536;2024-03-02T14:31:18;2.60;;;0.95;;
59786;SDS011;45672;51.612;5.536;2024-03-02T14:33:44;2.00;;;1.05;;
59786;SDS011;45672;51.612;5.536;2024-03-02T14:36:10;3.83;;;1.00;;
59786;SDS011;45672;51.612;5.536;2024-03-02T14:38:36;3.22;;;1.00;;
59786;SDS011;45672;51.612;5.536;2024-03-02T14:41:02;4.38;;;1.17;;
59786;SDS011;45672;51.612;5.536;2024-03-02T14:43:28;3.28;;;1.52;;
59786;SDS011;45672;51.612;5.536;2024-03-02T14:45:54;2.50;;;1.10;;
59786;SDS011;45672;51.612;5.536;2024-03-02T14:48:20;3.97;;;1.30;;
59786;SDS011;45672;51.612;5.536;2024-03-02T14:50:45;3.03;;;1.58;;
59786;SDS011;45672;51.612;5.536;2024-03-02T14:53:11;4.78;;;1.00;;
59786;SDS011;45672;51.612;5.536;2024-03-02T14:55:37;1.88;;;1.20;;